Time;durP1;ratioP1;P1;durP2;ratioP2;P2;SDS_P1;SDS_P2;PMS_P1;PMS_P2;Temp;Humidity;BMP_temperature;BMP_pressure;BME280_temperature;BME280_humidity;BME280_pressure;Samples;Min_cycle;Max_cycle;Signal;HPM_P1;HPM_P2
2021/09/23 00:03:00;;;;;;;;;;;;;;;;;;10367727;28;19966;-60
2021/09/23 00:07:57;;;;;;;;;;;;;;;;;;10351596;28;19920;-57
2021/09/23 00:12:55;;;;;;;;;;;;;;;;;;10352293;28;20379;-62
2021/09/23 00:17:52;;;;;;;;;;;;;;;;;;10341005;28;20019;-59
2021/09/23 00:22:49;;;;;;;;;;;;;;;;;;10337410;28;20346;-61
2021/09/23 00:27:47;;;;;;;;;;;;;;;;;;10362958;28;19912;-61
2021/09/23 00:32:44;;;;;;;;;;;;;;;;;;10345942;28;19917;-61
2021/09/23 00:37:42;;;;;;;;;;;;;;;;;;10329457;28;19924;-57
2021/09/23 00:42:39;;;;;;;;;;;;;;;;;;10355013;28;19912;-60
2021/09/23 00:47:37;;;;;;;;;;;;;;;;;;10358738;28;20432;-61
2021/09/23 00:52:34;;;;;;;;;;;;;;;;;;10364375;28;20011;-59
2021/09/23 00:57:31;;;;;;;;;;;;;;;;;;10339795;28;19920;-61
2021/09/23 01:02:29;;;;;;;;;;;;;;;;;;10357985;28;19912;-58
2021/09/23 01:07:28;;;;;;;;;;;;;;;;;;10353356;28;20274;-64
2021/09/23 01:12:25;;;;;;;;;;;;;;;;;;10352862;28;19923;-60
2021/09/23 01:17:23;;;;;;;;;;;;;;;;;;10364296;28;20227;-60
2021/09/23 01:22:28;;;;;;;;;;;;;;;;;;10335643;28;19923;-58
2021/09/23 01:27:46;;;;;;;;;;;;;;;;;;10362443;28;20337;-58
2021/09/23 01:32:48;;;;;;;;;;;;;;;;;;10357333;28;20349;-61
2021/09/23 01:37:48;;;;;;;;;;;;;;;;;;10356208;28;20005;-63
2021/09/23 01:42:45;;;;;;;;;;;;;;;;;;10343737;28;19998;-58
2021/09/23 01:47:43;;;;;;;;;;;;;;;;;;10354956;28;19916;-60
2021/09/23 01:52:40;;;;;;;;;;;;;;;;;;10338921;28;20023;-58
2021/09/23 01:57:46;;;;;;;;;;;;;;;;;;10361303;28;19920;-61
2021/09/23 02:02:44;;;;;;;;;;;;;;;;;;10342437;28;19935;-59
2021/09/23 02:08:07;;;;;;;;;;;;;;;;;;10326826;28;19912;-58
2021/09/23 02:13:04;;;;;;;;;;;;;;;;;;10353400;28;20370;-63
2021/09/23 02:18:03;;;;;;;;;;;;;;;;;;10325211;28;20014;-59
2021/09/23 02:23:01;;;;;;;;;;;;;;;;;;10344256;28;19919;-57
2021/09/23 02:28:04;;;;;;;;;;;;;;;;;;10352950;28;19916;-57
2021/09/23 02:33:02;;;;;;;;;;;;;;;;;;10349969;28;20007;-59
2021/09/23 02:37:59;;;;;;;;;;;;;;;;;;10365534;28;19913;-62
2021/09/23 02:42:56;;;;;;;;;;;;;;;;;;10357432;28;19912;-59
2021/09/23 02:47:54;;;;;;;;;;;;;;;;;;10350602;28;19947;-60
2021/09/23 02:52:51;;;;;;;;;;;;;;;;;;10361619;28;20365;-59
2021/09/23 02:57:48;;;;;;;;;;;;;;;;;;10348650;28;20007;-60
2021/09/23 03:02:45;;;;;;;;;;;;;;;;;;10373586;28;20275;-57
2021/09/23 03:07:43;;;;;;;;;;;;;;;;;;10348336;28;20335;-59
2021/09/23 03:12:40;;;;;;;;;;;;;;;;;;10354935;28;19920;-58
2021/09/23 03:17:37;;;;;;;;;;;;;;;;;;10368685;28;19921;-59
2021/09/23 03:22:35;;;;;;;;;;;;;;;;;;10336874;28;19996;-59
2021/09/23 03:27:32;;;;;;;;;;;;;;;;;;10353032;28;19913;-59
2021/09/23 03:32:30;;;;;;;;;;;;;;;;;;10370276;28;19923;-61
2021/09/23 03:37:27;;;;;;;;;;;;;;;;;;10366736;28;19912;-61
2021/09/23 03:42:25;;;;;;;;;;;;;;;;;;10371600;28;20297;-58
2021/09/23 03:47:22;;;;;;;;;;;;;;;;;;10363001;28;20011;-60
2021/09/23 03:52:19;;;;;;;;;;;;;;;;;;10352538;28;19956;-57
2021/09/23 03:57:17;;;;;;;;;;;;;;;;;;10364100;28;19916;-60
2021/09/23 04:02:14;;;;;;;;;;;;;;;;;;10365218;28;19966;-57
2021/09/23 04:07:11;;;;;;;;;;;;;;;;;;10346394;22;21441;-68
2021/09/23 04:12:09;;;;;;;;;;;;;;;;;;10351367;28;19951;-63
2021/09/23 04:17:06;;;;;;;;;;;;;;;;;;10389111;28;19919;-64
2021/09/23 04:22:04;;;;;;;;;;;;;;;;;;10424857;28;20002;-63
2021/09/23 04:27:01;;;;;;;;;;;;;;;;;;10426143;28;20014;-66
2021/09/23 04:32:00;;;;;;;;;;;;;;;;;;10432670;28;19911;-66
2021/09/23 04:37:00;;;;;;;;;;;;;;;;;;10428654;28;19922;-69
2021/09/23 04:47:09;;;;;;;;;;;;;;;;;;10260079;28;19928;-67
2021/09/23 04:52:10;;;;;;;;;;;;;;;;;;10301814;28;19917;-65
2021/09/23 04:57:08;;;;;;;;;;;;;;;;;;10289051;28;19925;-66
2021/09/23 05:02:06;;;;;;;;;;;;;;;;;;10288916;28;19936;-65
2021/09/23 05:07:03;;;;;;;;;;;;;;;;;;10289515;28;19913;-66
2021/09/23 05:12:01;;;;;;;;;;;;;;;;;;10289723;28;19916;-67
2021/09/23 05:17:00;;;;;;;;;;;;;;;;;;10319320;22;19928;-65
2021/09/23 05:21:57;;;;;;;;;;;;;;;;;;10335926;28;20035;-64
2021/09/23 05:26:54;;;;;;;;;;;;;;;;;;10355179;28;19989;-65
2021/09/23 05:31:51;;;;;;;;;;;;;;;;;;10370550;28;19917;-64
2021/09/23 05:36:49;;;;;;;;;;;;;;;;;;10377284;28;19927;-64
2021/09/23 05:41:46;;;;;;;;;;;;;;;;;;10350403;28;19912;-64
2021/09/23 05:46:43;;;;;;;;;;;;;;;;;;10375241;28;20014;-64
2021/09/23 05:51:42;;;;;;;;;;;;;;;;;;10382858;28;19958;-64
2021/09/23 05:56:41;;;;;;;;;;;;;;;;;;10374100;28;19955;-64
2021/09/23 06:01:38;;;;;;;;;;;;;;;;;;10381757;28;19920;-63
2021/09/23 06:06:36;;;;;;;;;;;;;;;;;;10341196;28;19913;-65
2021/09/23 06:11:35;;;;;;;;;;;;;;;;;;10373705;28;19912;-65
2021/09/23 06:16:32;;;;;;;;;;;;;;;;;;10378352;28;19916;-65
2021/09/23 06:21:30;;;;;;;;;;;;;;;;;;10363884;28;19920;-65
2021/09/23 06:26:27;;;;;;;;;;;;;;;;;;10356487;28;19935;-66
2021/09/23 06:31:24;;;;;;;;;;;;;;;;;;10372387;28;19919;-66
2021/09/23 06:36:22;;;;;;;;;;;;;;;;;;10354350;28;19916;-65
2021/09/23 06:41:19;;;;;;;;;;;;;;;;;;10375485;28;19963;-65
2021/09/23 06:46:19;;;;;;;;;;;;;;;;;;10372251;28;19913;-64
2021/09/23 06:51:16;;;;;;;;;;;;;;;;;;10371255;28;20010;-66
2021/09/23 06:56:13;;;;;;;;;;;;;;;;;;10367767;28;20007;-64
2021/09/23 07:01:10;;;;;;;;;;;;;;;;;;10370491;28;19994;-65
2021/09/23 07:06:26;;;;;;;;;;;;;;;;;;10366753;28;19912;-65
2021/09/23 07:11:23;;;;;;;;;;;;;;;;;;10355782;28;19917;-64
2021/09/23 07:16:21;;;;;;;;;;;;;;;;;;10357469;28;20470;-65
2021/09/23 07:21:18;;;;;;;;;;;;;;;;;;10359949;28;19916;-65
2021/09/23 07:26:19;;;;;;;;;;;;;;;;;;10364908;28;20900;-65
2021/09/23 07:31:16;;;;;;;;;;;;;;;;;;10375423;28;19920;-65
2021/09/23 07:36:14;;;;;;;;;;;;;;;;;;10357817;28;19928;-64
2021/09/23 07:41:11;;;;;;;;;;;;;;;;;;10387779;28;19935;-65
2021/09/23 07:46:08;;;;;;;;;;;;;;;;;;10374293;28;20373;-65
2021/09/23 07:51:06;;;;;;;;;;;;;;;;;;10354003;28;20281;-65
2021/09/23 07:56:03;;;;;;;;;;;;;;;;;;10340582;28;20019;-64
2021/09/23 08:01:01;;;;;;;;;;;;;;;;;;10345089;22;19925;-65
2021/09/23 08:05:58;;;;;;;;;;;;;;;;;;10356471;28;20438;-64
2021/09/23 08:10:55;;;;;;;;;;;;;;;;;;10298070;28;19963;-66
2021/09/23 08:15:54;;;;;;;;;;;;;;;;;;10287636;28;19924;-65
2021/09/23 08:21:24;;;;;;;;;;;;;;;;;;10245181;28;19927;-65
2021/09/23 08:26:23;;;;;;;;;;;;;;;;;;10306823;28;19919;-65
2021/09/23 08:31:21;;;;;;;;;;;;;;;;;;10157497;28;61176;-65
2021/09/23 08:37:07;;;;;;;;;;;;;;;;;;10290903;27;19933;-64
2021/09/23 08:42:06;;;;;;;;;;;;;;;;;;10285996;28;67666;-65
2021/09/23 08:47:04;;;;;;;;;;;;;;;;;;10303751;28;19967;-65
2021/09/23 08:52:02;;;;;;;;;;;;;;;;;;10306642;28;20039;-66
2021/09/23 08:57:01;;;;;;;;;;;;;;;;;;10303710;28;19948;-65
2021/09/23 09:01:59;;;;;;;;;;;;;;;;;;10182688;28;20036;-65
2021/09/23 09:07:11;;;;;;;;;;;;;;;;;;10266461;28;19928;-65
2021/09/23 09:12:20;;;;;;;;;;;;;;;;;;10277945;28;19940;-65
2021/09/23 09:17:17;;;;;;;;;;;;;;;;;;10265238;28;19971;-65
2021/09/23 09:22:15;;;;;;;;;;;;;;;;;;10264283;28;20074;-65
2021/09/23 09:27:12;;;;;;;;;;;;;;;;;;10273539;28;19960;-65
2021/09/23 09:32:09;;;;;;;;;;;;;;;;;;10270599;28;20327;-65
2021/09/23 09:37:07;;;;;;;;;;;;;;;;;;10261441;28;19922;-65
2021/09/23 09:42:15;;;;;;;;;;;;;;;;;;10273283;28;20524;-65
2021/09/23 09:47:13;;;;;;;;;;;;;;;;;;10260172;28;20458;-65
2021/09/23 09:52:11;;;;;;;;;;;;;;;;;;10234560;28;20360;-66
2021/09/23 09:57:10;;;;;;;;;;;;;;;;;;10241240;28;19921;-65
2021/09/23 10:02:13;;;;;;;;;;;;;;;;;;10248275;28;20371;-65
2021/09/23 10:07:11;;;;;;;;;;;;;;;;;;10250320;28;19917;-65
2021/09/23 10:12:09;;;;;;;;;;;;;;;;;;10233534;28;19921;-66
2021/09/23 10:17:07;;;;;;;;;;;;;;;;;;10258479;28;20012;-65
2021/09/23 10:22:06;;;;;;;;;;;;;;;;;;10285196;28;20015;-65
2021/09/23 10:27:57;;;;;;;;;;;;;;;;;;10280320;28;19934;-66
2021/09/23 10:32:23;;;;;;;;;;;;;;;;;;10251403;28;20436;-65
2021/09/23 10:37:21;;;;;;;;;;;;;;;;;;10224666;28;20426;-65
2021/09/23 10:42:22;;;;;;;;;;;;;;;;;;10267291;28;20431;-65
2021/09/23 10:47:19;;;;;;;;;;;;;;;;;;10270112;28;20012;-65
2021/09/23 10:52:16;;;;;;;;;;;;;;;;;;10238198;28;19917;-65
2021/09/23 10:57:14;;;;;;;;;;;;;;;;;;10239144;28;20352;-65
2021/09/23 11:02:11;;;;;;;;;;;;;;;;;;10228901;28;19917;-65
2021/09/23 11:07:09;;;;;;;;;;;;;;;;;;10237910;28;20020;-65
2021/09/23 11:12:06;;;;;;;;;;;;;;;;;;10226948;28;19929;-65
2021/09/23 11:17:09;;;;;;;;;;;;;;;;;;10235059;28;19932;-65
2021/09/23 11:22:08;;;;;;;;;;;;;;;;;;10240612;28;19925;-65
2021/09/23 11:27:08;;;;;;;;;;;;;;;;;;10203781;28;19918;-65
2021/09/23 11:32:12;;;;;;;;;;;;;;;;;;10203952;28;19974;-65
2021/09/23 11:37:10;;;;;;;;;;;;;;;;;;10223742;28;19924;-64
2021/09/23 11:42:19;;;;;;;;;;;;;;;;;;10275182;28;19917;-65
2021/09/23 11:47:17;;;;;;;;;;;;;;;;;;10292786;28;19924;-62
2021/09/23 11:52:14;;;;;;;;;;;;;;;;;;10288173;28;19914;-64
2021/09/23 11:57:12;;;;;;;;;;;;;;;;;;10259939;28;20004;-64
2021/09/23 12:02:11;;;;;;;;;;;;;;;;;;10290217;28;19921;-63
2021/09/23 12:07:08;;;;;;;;;;;;;;;;;;10295460;28;19917;-64
2021/09/23 12:12:08;;;;;;;;;;;;;;;;;;10305409;28;19964;-62
2021/09/23 12:17:12;;;;;;;;;;;;;;;;;;10256566;28;20441;-65
2021/09/23 12:22:21;;;;;;;;;;;;;;;;;;10298806;28;19917;-60
2021/09/23 12:27:18;;;;;;;;;;;;;;;;;;10300290;28;19913;-65
2021/09/23 12:32:17;;;;;;;;;;;;;;;;;;10295824;28;20383;-64
2021/09/23 12:37:15;;;;;;;;;;;;;;;;;;10298127;28;19920;-65
2021/09/23 12:42:35;;;;;;;;;;;;;;;;;;10311471;28;19917;-66
2021/09/23 12:47:33;;;;;;;;;;;;;;;;;;10300651;28;20405;-65
2021/09/23 12:52:31;;;;;;;;;;;;;;;;;;10285263;28;19947;-64
2021/09/23 12:57:28;;;;;;;;;;;;;;;;;;10315835;28;19962;-66
2021/09/23 13:02:26;;;;;;;;;;;;;;;;;;10311615;28;20171;-65
2021/09/23 13:07:23;;;;;;;;;;;;;;;;;;10290059;28;20394;-65
2021/09/23 13:12:23;;;;;;;;;;;;;;;;;;10301198;28;19935;-65
2021/09/23 13:17:45;;;;;;;;;;;;;;;;;;10288894;28;19917;-67
2021/09/23 13:22:43;;;;;;;;;;;;;;;;;;10307322;28;19914;-65
2021/09/23 13:27:43;;;;;;;;;;;;;;;;;;10309252;28;19963;-64
2021/09/23 13:32:40;;;;;;;;;;;;;;;;;;10283736;28;19930;-64
2021/09/23 13:37:37;;;;;;;;;;;;;;;;;;10309184;28;20275;-64
2021/09/23 13:42:35;;;;;;;;;;;;;;;;;;10308041;28;19913;-65
2021/09/23 13:47:52;;;;;;;;;;;;;;;;;;10308842;28;20225;-66
2021/09/23 13:52:51;;;;;;;;;;;;;;;;;;10307384;28;19925;-66
2021/09/23 13:57:48;;;;;;;;;;;;;;;;;;10308081;28;20011;-66
2021/09/23 14:02:45;;;;;;;;;;;;;;;;;;10254245;28;20284;-65
2021/09/23 14:07:47;;;;;;;;;;;;;;;;;;10316581;28;20007;-66
2021/09/23 14:12:44;;;;;;;;;;;;;;;;;;10348027;28;19917;-65
2021/09/23 14:17:45;;;;;;;;;;;;;;;;;;10322962;28;19956;-63
2021/09/23 14:22:42;;;;;;;;;;;;;;;;;;10314314;28;19913;-65
2021/09/23 14:27:41;;;;;;;;;;;;;;;;;;10269783;28;19920;-64
2021/09/23 14:32:38;;;;;;;;;;;;;;;;;;10314056;28;19924;-63
2021/09/23 14:37:36;;;;;;;;;;;;;;;;;;10270106;28;20338;-64
2021/09/23 14:42:33;;;;;;;;;;;;;;;;;;10255629;28;19914;-65
2021/09/23 14:47:30;;;;;;;;;;;;;;;;;;10314521;28;19925;-62
2021/09/23 14:52:28;;;;;;;;;;;;;;;;;;10305382;28;20330;-64
2021/09/23 14:57:25;;;;;;;;;;;;;;;;;;10307144;28;19917;-62
2021/09/23 15:02:26;;;;;;;;;;;;;;;;;;10305156;28;19975;-64
2021/09/23 15:07:23;;;;;;;;;;;;;;;;;;10306088;28;19923;-65
2021/09/23 15:12:21;;;;;;;;;;;;;;;;;;10301129;28;19992;-64
2021/09/23 15:17:18;;;;;;;;;;;;;;;;;;10313383;28;19974;-65
2021/09/23 15:22:15;;;;;;;;;;;;;;;;;;10342754;28;20369;-64
2021/09/23 15:27:12;;;;;;;;;;;;;;;;;;10309929;28;19921;-66
2021/09/23 15:32:10;;;;;;;;;;;;;;;;;;10303850;28;19966;-64
2021/09/23 15:37:07;;;;;;;;;;;;;;;;;;10320540;28;19972;-65
2021/09/23 15:42:04;;;;;;;;;;;;;;;;;;10304215;28;19924;-66
2021/09/23 15:47:02;;;;;;;;;;;;;;;;;;10286760;28;20260;-63
2021/09/23 15:51:59;;;;;;;;;;;;;;;;;;10304341;28;19924;-66
2021/09/23 15:56:56;;;;;;;;;;;;;;;;;;10304274;28;20164;-62
2021/09/23 16:01:54;;;;;;;;;;;;;;;;;;10304221;28;20355;-65
2021/09/23 16:06:51;;;;;;;;;;;;;;;;;;10304330;28;19917;-64
2021/09/23 16:11:48;;;;;;;;;;;;;;;;;;10303857;28;19924;-66
2021/09/23 16:16:46;;;;;;;;;;;;;;;;;;10302481;28;20017;-64
2021/09/23 16:21:43;;;;;;;;;;;;;;;;;;10302854;28;19987;-65
2021/09/23 16:26:40;;;;;;;;;;;;;;;;;;10283390;28;19924;-65
2021/09/23 16:31:38;;;;;;;;;;;;;;;;;;10260236;28;19921;-65
2021/09/23 16:36:35;;;;;;;;;;;;;;;;;;10281540;28;19921;-63
2021/09/23 16:41:32;;;;;;;;;;;;;;;;;;10283415;28;20299;-65
2021/09/23 16:46:30;;;;;;;;;;;;;;;;;;10270483;28;20319;-63
2021/09/23 16:51:27;;;;;;;;;;;;;;;;;;10270710;28;19917;-64
2021/09/23 16:56:24;;;;;;;;;;;;;;;;;;10277163;28;19983;-67
2021/09/23 17:01:22;;;;;;;;;;;;;;;;;;10274537;28;19925;-66
2021/09/23 17:06:19;;;;;;;;;;;;;;;;;;10288106;28;19927;-67
2021/09/23 17:11:16;;;;;;;;;;;;;;;;;;10277652;28;20298;-66
2021/09/23 17:16:14;;;;;;;;;;;;;;;;;;10281273;28;20094;-64
2021/09/23 17:21:11;;;;;;;;;;;;;;;;;;10276328;28;20105;-67
2021/09/23 17:26:08;;;;;;;;;;;;;;;;;;10289197;28;19953;-62
2021/09/23 17:31:05;;;;;;;;;;;;;;;;;;10279124;28;19993;-64
2021/09/23 17:36:03;;;;;;;;;;;;;;;;;;10285696;28;20473;-63
2021/09/23 17:41:00;;;;;;;;;;;;;;;;;;10276958;28;20034;-62
2021/09/23 17:45:57;;;;;;;;;;;;;;;;;;10279716;28;20269;-62
2021/09/23 17:50:55;;;;;;;;;;;;;;;;;;10281242;28;19936;-62
2021/09/23 17:55:52;;;;;;;;;;;;;;;;;;10273302;28;19925;-62
2021/09/23 18:00:49;;;;;;;;;;;;;;;;;;10274141;28;19925;-65
2021/09/23 18:05:47;;;;;;;;;;;;;;;;;;10269681;28;20139;-64
2021/09/23 18:10:44;;;;;;;;;;;;;;;;;;10280067;28;20063;-64
2021/09/23 18:15:41;;;;;;;;;;;;;;;;;;10283634;28;19925;-62
2021/09/23 18:20:39;;;;;;;;;;;;;;;;;;10277048;28;20428;-62
2021/09/23 18:25:36;;;;;;;;;;;;;;;;;;10276343;28;20391;-63
2021/09/23 18:30:36;;;;;;;;;;;;;;;;;;10277370;28;19924;-63
2021/09/23 18:35:33;;;;;;;;;;;;;;;;;;10280641;28;19925;-65
2021/09/23 18:40:30;;;;;;;;;;;;;;;;;;10276156;28;19924;-64
2021/09/23 18:45:28;;;;;;;;;;;;;;;;;;10277929;28;20342;-65
2021/09/23 18:50:25;;;;;;;;;;;;;;;;;;10277820;28;19928;-62
2021/09/23 18:55:22;;;;;;;;;;;;;;;;;;10278745;28;19932;-64
2021/09/23 19:00:20;;;;;;;;;;;;;;;;;;10274550;28;19927;-64
2021/09/23 19:05:17;;;;;;;;;;;;;;;;;;10271332;28;19921;-65
2021/09/23 19:10:14;;;;;;;;;;;;;;;;;;10275145;28;19956;-65
2021/09/23 19:15:12;;;;;;;;;;;;;;;;;;10278476;28;19925;-65
2021/09/23 19:20:09;;;;;;;;;;;;;;;;;;10276749;28;19976;-64
2021/09/23 19:25:06;;;;;;;;;;;;;;;;;;10275174;28;20343;-65
2021/09/23 19:30:05;;;;;;;;;;;;;;;;;;10277739;28;19917;-65
2021/09/23 19:35:03;;;;;;;;;;;;;;;;;;10273321;28;20334;-67
2021/09/23 19:40:00;;;;;;;;;;;;;;;;;;10275527;28;19921;-64
2021/09/23 19:44:58;;;;;;;;;;;;;;;;;;10276062;28;20458;-65
2021/09/23 19:49:55;;;;;;;;;;;;;;;;;;10270451;28;21389;-64
2021/09/23 19:54:52;;;;;;;;;;;;;;;;;;10278068;28;19960;-65
2021/09/23 19:59:50;;;;;;;;;;;;;;;;;;10276799;28;20016;-67
2021/09/23 20:04:48;;;;;;;;;;;;;;;;;;10273899;28;19921;-66
2021/09/23 20:09:45;;;;;;;;;;;;;;;;;;10277391;28;19925;-65
2021/09/23 20:14:42;;;;;;;;;;;;;;;;;;10274430;28;20305;-65
2021/09/23 20:19:40;;;;;;;;;;;;;;;;;;10277149;28;20299;-66
2021/09/23 20:24:37;;;;;;;;;;;;;;;;;;10272667;28;19917;-66
2021/09/23 20:29:34;;;;;;;;;;;;;;;;;;10279932;28;19928;-65
2021/09/23 20:34:31;;;;;;;;;;;;;;;;;;10275460;28;19936;-65
2021/09/23 20:39:29;;;;;;;;;;;;;;;;;;10276091;28;20350;-65
2021/09/23 20:44:26;;;;;;;;;;;;;;;;;;10274602;28;19934;-68
2021/09/23 20:49:23;;;;;;;;;;;;;;;;;;10276871;28;19971;-67
2021/09/23 20:54:20;;;;;;;;;;;;;;;;;;10275616;28;19973;-65
2021/09/23 20:59:23;;;;;;;;;;;;;;;;;;10277545;28;19923;-65
2021/09/23 21:04:20;;;;;;;;;;;;;;;;;;10273308;28;20298;-65
2021/09/23 21:09:17;;;;;;;;;;;;;;;;;;10264537;28;19987;-69
2021/09/23 21:14:14;;;;;;;;;;;;;;;;;;10265412;28;19925;-66
2021/09/23 21:19:12;;;;;;;;;;;;;;;;;;10276723;28;19917;-67
2021/09/23 21:24:10;;;;;;;;;;;;;;;;;;10271757;28;19964;-65
2021/09/23 21:29:07;;;;;;;;;;;;;;;;;;10271090;28;19923;-67
2021/09/23 21:34:04;;;;;;;;;;;;;;;;;;10268059;28;19925;-65
2021/09/23 21:39:02;;;;;;;;;;;;;;;;;;10263258;28;19917;-66
2021/09/23 21:44:01;;;;;;;;;;;;;;;;;;10277762;28;19924;-67
2021/09/23 21:48:59;;;;;;;;;;;;;;;;;;10276711;28;20410;-65
2021/09/23 21:53:56;;;;;;;;;;;;;;;;;;10292072;28;19931;-69
2021/09/23 21:58:53;;;;;;;;;;;;;;;;;;10288865;28;19921;-66
2021/09/23 22:03:50;;;;;;;;;;;;;;;;;;10274916;28;19913;-68
2021/09/23 22:08:52;;;;;;;;;;;;;;;;;;10278030;28;19913;-65
2021/09/23 22:13:49;;;;;;;;;;;;;;;;;;10254789;28;19921;-67
2021/09/23 22:18:46;;;;;;;;;;;;;;;;;;10264991;28;19917;-66
2021/09/23 22:23:44;;;;;;;;;;;;;;;;;;10276535;28;20391;-66
2021/09/23 22:28:41;;;;;;;;;;;;;;;;;;10269280;28;19944;-65
2021/09/23 22:33:38;;;;;;;;;;;;;;;;;;10260056;28;19922;-67
2021/09/23 22:38:35;;;;;;;;;;;;;;;;;;10275073;28;20346;-66
2021/09/23 22:43:33;;;;;;;;;;;;;;;;;;10279171;28;19918;-68
2021/09/23 22:48:30;;;;;;;;;;;;;;;;;;10275976;28;19956;-66
2021/09/23 22:53:27;;;;;;;;;;;;;;;;;;10272997;28;19929;-67
2021/09/23 22:58:25;;;;;;;;;;;;;;;;;;10264597;28;19921;-66
2021/09/23 23:03:22;;;;;;;;;;;;;;;;;;10268111;28;20005;-67
2021/09/23 23:08:19;;;;;;;;;;;;;;;;;;10254978;28;19921;-66
2021/09/23 23:13:17;;;;;;;;;;;;;;;;;;10270688;28;19979;-67
2021/09/23 23:18:14;;;;;;;;;;;;;;;;;;10271506;28;19925;-66
2021/09/23 23:23:11;;;;;;;;;;;;;;;;;;10263002;28;19918;-68
2021/09/23 23:28:09;;;;;;;;;;;;;;;;;;10273424;28;20325;-66
2021/09/23 23:33:06;;;;;;;;;;;;;;;;;;10279332;28;20399;-67
2021/09/23 23:38:04;;;;;;;;;;;;;;;;;;10265050;28;19937;-66
2021/09/23 23:43:05;;;;;;;;;;;;;;;;;;10281661;28;20272;-65
2021/09/23 23:48:02;;;;;;;;;;;;;;;;;;10261107;28;20003;-65
2021/09/23 23:52:59;;;;;;;;;;;;;;;;;;10281168;28;20055;-66
2021/09/23 23:57:57;;;;;;;;;;;;;;;;;;10276128;28;19924;-65
